Time;durP1;ratioP1;P1;durP2;ratioP2;P2;SDS_P1;SDS_P2;PMS_P1;PMS_P2;Temp;Humidity;BMP_temperature;BMP_pressure;BME280_temperature;BME280_humidity;BME280_pressure;Samples;Min_cycle;Max_cycle;Signal;HPM_P1;HPM_P2
2021/12/09 08:45:29;;;;;;;2.80;0.90;;;4.50;99.90;;;;;;4952341;29;20267;-77
2021/12/09 08:47:56;;;;;;;2.40;1.00;;;4.50;99.90;;;;;;4953824;29;20216;-75
2021/12/09 08:50:24;;;;;;;1.30;0.90;;;4.50;99.90;;;;;;4952843;29;20239;-75
2021/12/09 08:52:53;;;;;;;2.43;0.90;;;4.60;99.90;;;;;;4935549;29;20232;-75
2021/12/09 08:55:22;;;;;;;1.23;0.80;;;4.50;99.90;;;;;;4934713;29;20213;-85
2021/12/09 08:57:49;;;;;;;2.00;0.80;;;4.70;99.90;;;;;;4933455;29;20208;-77
2021/12/09 09:00:17;;;;;;;1.47;0.80;;;4.60;99.90;;;;;;4934016;29;20219;-86
2021/12/09 09:02:46;;;;;;;2.03;0.90;;;4.60;99.90;;;;;;4950613;29;20228;-81
2021/12/09 09:05:15;;;;;;;1.50;0.80;;;4.70;99.90;;;;;;4953015;28;20207;-77
2021/12/09 09:07:42;;;;;;;1.97;0.70;;;4.60;99.90;;;;;;4953418;28;20208;-77
2021/12/09 09:10:10;;;;;;;1.90;0.70;;;4.60;99.90;;;;;;4953482;28;20822;-76
2021/12/09 09:12:38;;;;;;;0.97;0.60;;;4.60;99.90;;;;;;4952621;28;20230;-76
2021/12/09 09:15:07;;;;;;;3.03;0.80;;;4.50;99.90;;;;;;4953444;28;20212;-75
2021/12/09 09:17:34;;;;;;;1.10;0.70;;;4.50;99.90;;;;;;4955179;28;20566;-75
2021/12/09 09:20:01;;;;;;;1.10;0.60;;;4.60;99.90;;;;;;4955923;28;20218;-77
2021/12/09 09:22:27;;;;;;;0.60;0.50;;;4.60;99.90;;;;;;4956617;28;20232;-72
2021/12/09 09:24:54;;;;;;;1.13;0.53;;;4.50;99.90;;;;;;4957114;28;20215;-72
2021/12/09 09:27:22;;;;;;;1.40;0.80;;;4.50;99.90;;;;;;4955990;28;20212;-74
2021/12/09 09:29:50;;;;;;;2.47;1.00;;;4.50;99.90;;;;;;4956749;28;20239;-77
2021/12/09 09:32:17;;;;;;;1.00;0.57;;;4.50;99.90;;;;;;4956383;28;20234;-74
2021/12/09 09:34:44;;;;;;;0.60;0.50;;;4.50;99.90;;;;;;4955810;28;20210;-71
2021/12/09 09:37:12;;;;;;;1.50;0.73;;;4.60;99.90;;;;;;4950663;28;20218;-76
2021/12/09 09:39:42;;;;;;;1.13;0.70;;;4.60;99.90;;;;;;4956044;28;20314;-75
2021/12/09 09:42:34;;;;;;;1.23;0.90;;;4.60;99.90;;;;;;4955593;28;20239;-77
2021/12/09 09:45:02;;;;;;;2.80;1.00;;;4.60;99.90;;;;;;4956465;28;20216;-81
2021/12/09 09:47:30;;;;;;;2.93;1.00;;;4.70;99.90;;;;;;4942456;28;20215;-74
2021/12/09 09:49:57;;;;;;;0.90;0.67;;;4.70;99.90;;;;;;4936675;29;20237;-74
2021/12/09 09:52:24;;;;;;;2.17;0.67;;;4.70;99.90;;;;;;4951371;29;20232;-79
2021/12/09 09:54:54;;;;;;;1.77;0.87;;;4.60;99.90;;;;;;4956490;28;20212;-79
2021/12/09 09:57:21;;;;;;;4.00;1.10;;;4.60;99.90;;;;;;4943172;28;20308;-77
2021/12/09 09:59:48;;;;;;;1.83;1.07;;;4.60;99.90;;;;;;4945228;29;20205;-78
2021/12/09 10:02:17;;;;;;;1.10;0.90;;;4.60;99.90;;;;;;4956350;28;20228;-77
2021/12/09 10:04:47;;;;;;;1.40;0.70;;;4.70;99.90;;;;;;4956721;28;20208;-84
2021/12/09 10:07:17;;;;;;;3.77;1.07;;;4.70;99.90;;;;;;4944375;28;20652;-75
2021/12/09 10:09:45;;;;;;;2.40;1.37;;;4.70;99.90;;;;;;4937754;29;20236;-78
2021/12/09 10:12:12;;;;;;;3.37;1.00;;;4.70;99.90;;;;;;4947780;29;20224;-73
2021/12/09 10:14:40;;;;;;;2.17;1.10;;;4.80;99.90;;;;;;4955956;28;20207;-75
2021/12/09 10:17:09;;;;;;;1.50;0.90;;;4.80;99.90;;;;;;4949768;28;20211;-78
2021/12/09 10:19:42;;;;;;;1.63;0.77;;;4.90;99.90;;;;;;4957164;28;20218;-79
2021/12/09 10:22:11;;;;;;;3.20;1.30;;;5.00;99.90;;;;;;4957156;28;20224;-78
2021/12/09 10:24:39;;;;;;;1.20;1.00;;;5.10;99.90;;;;;;4953199;28;20201;-75
2021/12/09 10:27:08;;;;;;;1.97;1.10;;;5.40;99.90;;;;;;4947618;28;20516;-75
2021/12/09 10:29:40;;;;;;;1.50;1.10;;;5.50;99.90;;;;;;4956008;28;20239;-79
2021/12/09 10:32:11;;;;;;;3.10;1.20;;;5.70;99.90;;;;;;4956501;28;20228;-78
2021/12/09 10:34:40;;;;;;;3.53;1.00;;;5.80;99.90;;;;;;4942116;28;20221;-80
2021/12/09 10:37:11;;;;;;;4.00;1.57;;;5.80;99.90;;;;;;4953103;28;20212;-74
2021/12/09 10:39:45;;;;;;;4.13;1.30;;;5.80;99.90;;;;;;4956348;28;20208;-72
2021/12/09 10:42:15;;;;;;;1.93;1.50;;;5.80;99.90;;;;;;4956673;28;20255;-74
2021/12/09 10:44:52;;;;;;;1.77;1.33;;;5.50;99.90;;;;;;4942287;28;20217;-73
2021/12/09 10:47:35;;;;;;;3.40;1.30;;;5.50;99.90;;;;;;4937203;29;20215;-69
2021/12/09 10:50:10;;;;;;;2.60;1.50;;;5.60;99.90;;;;;;4953650;29;20224;-72
2021/12/09 10:52:42;;;;;;;4.27;1.27;;;5.60;99.90;;;;;;4949925;28;20234;-72
2021/12/09 10:55:21;;;;;;;3.80;1.00;;;5.50;99.90;;;;;;4954153;28;20647;-77
2021/12/09 10:57:56;;;;;;;2.70;1.10;;;5.50;99.90;;;;;;4950486;28;20210;-73
2021/12/09 11:00:42;;;;;;;2.10;0.93;;;5.60;99.90;;;;;;4954146;29;20218;-72
2021/12/09 11:03:23;;;;;;;3.83;1.30;;;5.80;99.90;;;;;;4948321;28;20235;-73
2021/12/09 11:05:56;;;;;;;2.97;1.00;;;6.00;99.90;;;;;;4954011;28;20302;-73
2021/12/09 11:08:34;;;;;;;3.37;1.00;;;5.90;99.90;;;;;;4935058;29;20209;-73
2021/12/09 11:11:10;;;;;;;4.83;1.40;;;5.90;99.90;;;;;;4935305;29;20240;-73
2021/12/09 11:13:50;;;;;;;5.23;1.10;;;5.70;99.90;;;;;;4951611;29;20658;-73
2021/12/09 11:16:24;;;;;;;3.27;1.37;;;5.80;99.90;;;;;;4949499;28;20212;-72
2021/12/09 11:18:53;;;;;;;2.43;1.40;;;5.90;99.90;;;;;;4944716;29;20988;-73
2021/12/09 11:21:24;;;;;;;4.33;1.67;;;6.00;99.90;;;;;;4935376;29;20215;-73
2021/12/09 11:23:56;;;;;;;5.13;1.50;;;6.00;99.90;;;;;;4933808;29;20219;-73
2021/12/09 11:26:36;;;;;;;5.40;1.60;;;6.00;99.90;;;;;;4934080;29;20212;-74
2021/12/09 11:29:08;;;;;;;1.40;1.20;;;6.00;99.90;;;;;;4949236;29;20239;-74
2021/12/09 11:31:46;;;;;;;6.30;1.27;;;5.90;99.90;;;;;;4949358;29;20330;-75
2021/12/09 11:34:16;;;;;;;4.97;1.20;;;6.00;99.90;;;;;;4953421;28;20685;-73
2021/12/09 11:36:49;;;;;;;4.87;1.10;;;6.00;99.90;;;;;;4945304;28;20209;-72
2021/12/09 11:39:25;;;;;;;3.67;1.70;;;5.90;99.90;;;;;;4934534;29;20292;-73
2021/12/09 11:41:52;;;;;;;5.23;1.50;;;5.70;99.90;;;;;;4937403;29;20234;-74
2021/12/09 11:44:19;;;;;;;4.50;1.53;;;5.60;99.90;;;;;;4953739;28;20875;-73
2021/12/09 11:46:48;;;;;;;5.30;1.30;;;5.60;99.90;;;;;;4945963;28;20541;-73
2021/12/09 11:49:15;;;;;;;5.00;1.50;;;5.70;99.90;;;;;;4935163;29;20271;-74
2021/12/09 11:51:43;;;;;;;5.07;1.60;;;5.80;99.90;;;;;;4949972;29;20254;-74
2021/12/09 11:54:12;;;;;;;3.53;1.33;;;5.80;99.90;;;;;;4953935;28;20208;-74
2021/12/09 11:56:55;;;;;;;3.23;1.40;;;5.80;99.90;;;;;;4943246;28;20325;-74
2021/12/09 12:11:33;;;;;;;4.67;1.53;;;6.00;99.90;;;;;;4934171;29;20240;-73
2021/12/09 12:14:05;;;;;;;2.90;1.20;;;6.10;99.90;;;;;;4933990;29;20683;-73
2021/12/09 12:16:49;;;;;;;6.10;2.00;;;6.10;99.90;;;;;;4934242;29;20201;-74
2021/12/09 12:19:28;;;;;;;2.77;1.40;;;6.20;99.90;;;;;;4947810;29;20227;-73
2021/12/09 12:22:19;;;;;;;5.90;1.40;;;6.20;99.90;;;;;;4936722;29;20787;-73
2021/12/09 12:27:44;;;;;;;9.03;1.90;;;6.40;99.90;;;;;;4942522;29;20215;-73
2021/12/09 12:30:36;;;;;;;5.17;1.53;;;6.40;99.90;;;;;;4950086;28;20246;-72
2021/12/09 12:36:02;;;;;;;7.00;1.87;;;6.50;99.90;;;;;;4934088;29;20204;-73
2021/12/09 12:41:15;;;;;;;10.80;1.80;;;6.60;99.90;;;;;;4930480;29;20433;-72
2021/12/09 12:43:52;;;;;;;3.90;1.70;;;6.70;99.90;;;;;;4934214;29;20205;-73
2021/12/09 12:46:42;;;;;;;6.07;2.13;;;6.60;99.90;;;;;;4934297;29;20311;-73
2021/12/09 12:49:17;;;;;;;8.70;1.93;;;6.60;99.90;;;;;;4944703;29;20300;-72
2021/12/09 12:52:03;;;;;;;4.47;1.57;;;6.70;99.90;;;;;;4952462;28;20235;-72
2021/12/09 12:54:44;;;;;;;7.53;1.57;;;6.80;99.90;;;;;;4953430;28;20211;-72
2021/12/09 12:57:16;;;;;;;6.27;1.70;;;6.80;99.90;;;;;;4951015;28;20398;-74
2021/12/09 12:59:47;;;;;;;6.73;1.73;;;6.80;99.90;;;;;;4948381;29;20231;-74
2021/12/09 13:02:41;;;;;;;5.53;1.77;;;6.80;99.90;;;;;;4953159;28;20275;-74
2021/12/09 13:11:01;;;;;;;3.57;1.30;;;6.60;99.90;;;;;;4950913;28;20698;-73
2021/12/09 13:13:43;;;;;;;6.77;1.77;;;6.60;99.90;;;;;;4952754;28;20256;-73
2021/12/09 13:16:17;;;;;;;6.33;1.80;;;6.60;99.90;;;;;;4952942;28;20342;-73
2021/12/09 13:18:58;;;;;;;8.33;2.00;;;6.70;99.90;;;;;;4946188;28;20563;-73
2021/12/09 13:21:47;;;;;;;6.00;2.00;;;6.70;99.90;;;;;;4952603;28;20214;-73
2021/12/09 13:24:46;;;;;;;3.53;1.83;;;6.60;99.90;;;;;;4953062;28;20212;-72
2021/12/09 13:30:45;;;;;;;4.83;1.57;;;6.60;99.90;;;;;;4951744;28;20231;-73
2021/12/09 13:33:52;;;;;;;6.10;1.60;;;6.50;99.90;;;;;;4944918;28;20312;-73
2021/12/09 13:36:53;;;;;;;7.27;1.90;;;6.50;99.90;;;;;;4952627;28;20204;-73
2021/12/09 13:39:53;;;;;;;4.87;1.63;;;6.60;99.90;;;;;;4946024;28;20219;-73
2021/12/09 13:47:50;;;;;;;12.33;1.60;;;6.60;99.90;;;;;;4946676;29;20313;-74
2021/12/09 13:55:49;;;;;;;3.20;1.50;;;6.50;99.90;;;;;;4942700;29;20250;-74
2021/12/09 13:58:21;;;;;;;4.30;1.30;;;6.50;99.90;;;;;;4942898;28;20209;-78
2021/12/09 14:00:49;;;;;;;4.73;1.33;;;6.50;99.90;;;;;;4932754;29;20287;-74
2021/12/09 14:03:17;;;;;;;7.00;1.33;;;6.60;99.90;;;;;;4935815;29;20239;-76
2021/12/09 14:05:51;;;;;;;2.17;1.27;;;6.50;99.90;;;;;;4945710;29;20267;-78
2021/12/09 14:08:28;;;;;;;8.07;1.70;;;6.60;99.90;;;;;;4955368;28;20216;-79
2021/12/09 14:11:03;;;;;;;5.60;1.83;;;6.50;99.90;;;;;;4957033;28;20231;-81
2021/12/09 14:13:32;;;;;;;5.57;1.40;;;6.40;99.90;;;;;;4957144;28;20233;-78
2021/12/09 14:21:38;;;;;;;9.60;1.47;;;6.50;99.90;;;;;;4932471;28;20240;-76
2021/12/09 14:24:07;;;;;;;3.77;1.63;;;6.40;99.90;;;;;;4956538;28;20597;-76
2021/12/09 14:26:34;;;;;;;8.93;1.43;;;6.40;99.90;;;;;;4955952;28;20298;-78
2021/12/09 14:29:02;;;;;;;5.13;1.50;;;6.40;99.90;;;;;;4956862;28;20214;-77
2021/12/09 14:31:29;;;;;;;4.60;1.87;;;6.40;99.90;;;;;;4955889;28;20621;-76
2021/12/09 14:34:01;;;;;;;10.03;1.60;;;6.50;99.90;;;;;;4956485;28;20215;-76
2021/12/09 14:36:28;;;;;;;4.20;1.77;;;6.50;99.90;;;;;;4955949;28;20291;-77
2021/12/09 14:39:02;;;;;;;7.93;2.10;;;6.50;99.90;;;;;;4956183;28;20212;-77
2021/12/09 14:41:29;;;;;;;6.23;1.57;;;6.50;99.90;;;;;;4955934;28;20224;-76
2021/12/09 14:43:57;;;;;;;4.43;1.67;;;6.50;99.90;;;;;;4955854;28;20788;-76
2021/12/09 14:46:27;;;;;;;6.87;1.60;;;6.40;99.90;;;;;;4955910;28;20218;-77
2021/12/09 14:48:55;;;;;;;3.37;1.53;;;6.50;99.90;;;;;;4955698;28;20235;-78
2021/12/09 14:51:24;;;;;;;10.97;1.97;;;6.40;99.90;;;;;;4956087;28;20242;-77
2021/12/09 14:53:53;;;;;;;10.37;1.90;;;6.40;99.90;;;;;;4956103;28;20294;-77
2021/12/09 14:56:30;;;;;;;10.00;2.17;;;6.50;99.90;;;;;;4956575;28;20212;-77
2021/12/09 14:59:16;;;;;;;3.50;1.50;;;6.60;99.90;;;;;;4955902;28;20298;-76
2021/12/09 15:01:45;;;;;;;9.43;2.17;;;6.70;99.90;;;;;;4955724;28;20327;-76
2021/12/09 15:04:17;;;;;;;6.23;1.77;;;6.70;99.90;;;;;;4956400;28;20247;-76
2021/12/09 15:06:52;;;;;;;6.90;1.90;;;6.70;99.90;;;;;;4956607;28;20377;-75
2021/12/09 15:09:20;;;;;;;11.07;2.00;;;6.60;99.90;;;;;;4956239;28;20642;-76
2021/12/09 15:11:51;;;;;;;5.10;1.90;;;6.50;99.90;;;;;;4956356;28;20244;-76
2021/12/09 15:14:23;;;;;;;6.10;1.90;;;6.70;99.90;;;;;;4955694;28;20204;-76
2021/12/09 15:17:08;;;;;;;4.63;1.80;;;6.70;99.90;;;;;;4956428;28;20212;-76
2021/12/09 15:19:36;;;;;;;8.53;1.40;;;6.70;99.90;;;;;;4956411;28;20291;-76
2021/12/09 15:22:10;;;;;;;6.37;2.00;;;6.70;99.90;;;;;;4956156;28;20232;-76
2021/12/09 15:24:39;;;;;;;9.77;1.80;;;6.70;99.90;;;;;;4956089;28;20673;-77
2021/12/09 15:27:07;;;;;;;10.73;1.90;;;6.60;99.90;;;;;;4956068;28;20214;-77
2021/12/09 15:29:35;;;;;;;6.23;1.93;;;6.60;99.90;;;;;;4956396;28;20231;-77
2021/12/09 15:32:06;;;;;;;4.77;2.57;;;6.50;99.90;;;;;;4955908;28;20239;-76
2021/12/09 15:34:39;;;;;;;9.17;2.07;;;6.50;99.90;;;;;;4955998;28;20208;-77
2021/12/09 15:37:10;;;;;;;4.47;1.93;;;6.40;99.90;;;;;;4953153;28;20200;-77
2021/12/09 15:39:39;;;;;;;6.70;2.13;;;6.60;99.90;;;;;;4945123;29;20258;-76
2021/12/09 15:42:09;;;;;;;8.40;2.00;;;6.50;99.90;;;;;;4955320;28;20232;-77
2021/12/09 15:44:38;;;;;;;7.30;2.07;;;6.60;99.90;;;;;;4955070;28;20211;-76
2021/12/09 15:47:11;;;;;;;8.80;1.90;;;6.70;99.90;;;;;;4955226;28;20216;-76
2021/12/09 15:49:43;;;;;;;12.90;2.00;;;6.70;99.90;;;;;;4955307;28;20234;-76
2021/12/09 15:52:12;;;;;;;10.10;1.77;;;6.70;99.90;;;;;;4954811;28;20235;-76
2021/12/09 15:54:45;;;;;;;6.50;2.80;;;6.70;99.90;;;;;;4955223;28;20561;-76
2021/12/09 15:57:17;;;;;;;4.83;2.43;;;6.60;99.90;;;;;;4936142;29;20211;-77
2021/12/09 15:59:44;;;;;;;7.13;2.00;;;6.60;99.90;;;;;;4935998;29;20664;-76
2021/12/09 16:02:13;;;;;;;8.37;1.93;;;6.70;99.90;;;;;;4936046;29;20239;-76
2021/12/09 16:04:41;;;;;;;9.10;2.20;;;6.70;99.90;;;;;;4936238;29;20205;-77
2021/12/09 16:07:08;;;;;;;3.53;1.63;;;6.60;99.90;;;;;;4936183;29;20299;-76
2021/12/09 16:09:34;;;;;;;12.57;2.10;;;6.60;99.90;;;;;;4935580;29;20685;-76
2021/12/09 16:12:03;;;;;;;6.40;1.83;;;6.70;99.90;;;;;;4934125;29;20240;-76
2021/12/09 16:14:33;;;;;;;6.40;2.57;;;6.70;99.90;;;;;;4934792;29;20209;-76
2021/12/09 16:17:06;;;;;;;4.10;1.93;;;6.70;99.90;;;;;;4935898;29;20209;-75
2021/12/09 16:19:37;;;;;;;11.37;2.10;;;6.70;99.90;;;;;;4936142;29;20358;-76
2021/12/09 16:24:52;;;;;;;7.77;1.90;;;6.70;99.90;;;;;;4935573;29;20207;-76
2021/12/09 16:27:20;;;;;;;11.10;2.40;;;6.70;99.90;;;;;;4935350;29;20293;-76
2021/12/09 16:29:49;;;;;;;9.27;2.07;;;6.70;99.90;;;;;;4935941;29;20213;-76
2021/12/09 16:32:17;;;;;;;8.47;1.97;;;6.70;99.90;;;;;;4935530;29;20700;-76
2021/12/09 16:34:46;;;;;;;6.70;2.40;;;6.60;99.90;;;;;;4935839;29;20245;-75
2021/12/09 16:37:14;;;;;;;5.07;1.80;;;6.60;99.90;;;;;;4935615;29;20215;-76
2021/12/09 16:39:42;;;;;;;6.13;2.03;;;6.40;99.90;;;;;;4935996;29;20571;-76
2021/12/09 16:42:09;;;;;;;4.00;1.40;;;6.30;99.90;;;;;;4936847;29;20224;-75
2021/12/09 16:44:37;;;;;;;7.67;1.73;;;6.30;99.90;;;;;;4938603;29;20307;-76
2021/12/09 16:47:06;;;;;;;6.67;1.70;;;6.20;99.90;;;;;;4936446;29;20208;-76
2021/12/09 16:49:33;;;;;;;9.47;1.80;;;6.10;99.90;;;;;;4935735;29;20660;-76
2021/12/09 16:52:00;;;;;;;6.10;1.40;;;6.00;99.90;;;;;;4935144;29;20556;-76
2021/12/09 16:54:32;;;;;;;9.20;1.40;;;6.00;99.90;;;;;;4935309;29;20668;-77
2021/12/09 16:57:10;;;;;;;6.67;1.63;;;6.00;99.90;;;;;;4935857;29;20612;-76
2021/12/09 16:59:38;;;;;;;5.87;1.53;;;6.10;99.90;;;;;;4935336;29;20216;-77
2021/12/09 17:02:10;;;;;;;2.90;1.70;;;6.10;99.90;;;;;;4935388;29;20224;-76
2021/12/09 17:04:39;;;;;;;6.27;2.30;;;6.00;99.90;;;;;;4935385;29;20536;-76
2021/12/09 17:07:07;;;;;;;11.43;1.87;;;6.00;99.90;;;;;;4935615;29;20219;-76
2021/12/09 17:09:34;;;;;;;3.23;1.23;;;6.00;99.90;;;;;;4935449;29;20663;-76
2021/12/09 17:12:02;;;;;;;8.50;1.60;;;5.90;99.90;;;;;;4935362;29;20580;-75
2021/12/09 17:14:30;;;;;;;8.93;1.40;;;6.00;99.90;;;;;;4935631;29;20745;-76
2021/12/09 17:16:58;;;;;;;2.17;1.30;;;5.90;99.90;;;;;;4935285;29;20208;-76
2021/12/09 17:19:27;;;;;;;6.33;1.80;;;5.90;99.90;;;;;;4935856;29;20211;-76
2021/12/09 17:21:55;;;;;;;12.60;2.30;;;5.90;99.90;;;;;;4935239;29;20232;-76
2021/12/09 17:24:22;;;;;;;6.30;1.43;;;5.80;99.90;;;;;;4935669;29;20216;-76
2021/12/09 17:26:50;;;;;;;6.70;2.10;;;5.80;99.90;;;;;;4935608;29;20236;-75
2021/12/09 17:29:18;;;;;;;3.17;1.70;;;5.90;99.90;;;;;;4935079;29;20208;-75
2021/12/09 17:31:48;;;;;;;5.57;1.50;;;5.90;99.90;;;;;;4935020;29;20247;-76
2021/12/09 17:34:18;;;;;;;4.70;1.40;;;5.90;99.90;;;;;;4935669;29;20208;-75
2021/12/09 17:36:47;;;;;;;6.33;1.80;;;5.80;99.90;;;;;;4936064;29;20235;-75
2021/12/09 17:39:17;;;;;;;4.73;1.30;;;5.70;99.90;;;;;;4939074;29;20664;-76
2021/12/09 17:41:47;;;;;;;8.77;2.00;;;5.70;99.90;;;;;;4938883;29;20236;-76
2021/12/09 17:44:15;;;;;;;3.03;1.40;;;5.70;99.90;;;;;;4939202;29;20240;-75
2021/12/09 17:46:42;;;;;;;7.57;1.70;;;5.70;99.90;;;;;;4938934;29;20205;-76
2021/12/09 17:49:11;;;;;;;8.73;1.60;;;5.70;99.90;;;;;;4939017;29;20223;-76
2021/12/09 17:51:44;;;;;;;9.50;1.80;;;5.70;99.90;;;;;;4938903;29;20236;-75
2021/12/09 17:54:13;;;;;;;4.13;1.37;;;5.70;99.90;;;;;;4938325;29;20217;-76
2021/12/09 17:56:40;;;;;;;3.20;1.47;;;5.60;99.90;;;;;;4946524;29;20603;-79
2021/12/09 17:59:07;;;;;;;6.20;1.90;;;5.60;99.90;;;;;;4956669;28;20216;-75
2021/12/09 18:01:34;;;;;;;5.40;1.40;;;5.70;99.90;;;;;;4953032;28;20225;-76
2021/12/09 18:04:01;;;;;;;7.53;1.57;;;5.70;99.90;;;;;;4938756;29;20208;-78
2021/12/09 18:06:28;;;;;;;5.20;1.07;;;5.60;99.90;;;;;;4938667;29;20316;-77
2021/12/09 18:08:56;;;;;;;5.97;1.40;;;5.60;99.90;;;;;;4938260;29;20213;-80
2021/12/09 18:11:27;;;;;;;9.97;1.43;;;5.60;99.90;;;;;;4937732;29;20209;-79
2021/12/09 18:13:55;;;;;;;4.80;1.40;;;5.60;99.90;;;;;;4943964;29;20294;-79
2021/12/09 18:16:28;;;;;;;3.43;1.17;;;5.50;99.90;;;;;;4944810;28;20292;-79
2021/12/09 18:18:55;;;;;;;4.40;1.33;;;5.50;99.90;;;;;;4954250;29;20306;-76
2021/12/09 18:21:22;;;;;;;4.70;1.47;;;5.50;99.90;;;;;;4957054;28;20212;-78
2021/12/09 18:23:49;;;;;;;7.47;1.63;;;5.40;99.90;;;;;;4957079;28;20200;-78
2021/12/09 18:26:16;;;;;;;19.17;1.83;;;5.30;99.90;;;;;;4953500;28;20284;-79
2021/12/09 18:28:44;;;;;;;6.07;1.47;;;5.30;99.90;;;;;;4937725;29;20211;-79
2021/12/09 18:31:11;;;;;;;4.10;1.47;;;5.30;99.90;;;;;;4937352;29;20659;-80
2021/12/09 18:33:39;;;;;;;5.43;1.37;;;5.20;99.90;;;;;;4937891;29;20232;-79
2021/12/09 18:36:12;;;;;;;4.17;1.40;;;5.20;99.90;;;;;;4937761;29;20236;-79
2021/12/09 18:38:39;;;;;;;15.03;1.97;;;5.20;99.90;;;;;;4937873;29;20211;-77
2021/12/09 18:41:06;;;;;;;5.97;1.23;;;5.30;99.90;;;;;;4938133;29;20212;-77
2021/12/09 18:43:33;;;;;;;8.43;1.90;;;5.20;99.90;;;;;;4937656;29;20209;-78
2021/12/09 18:46:03;;;;;;;3.40;1.30;;;5.20;99.90;;;;;;4938370;29;20227;-78
2021/12/09 18:48:32;;;;;;;7.63;1.70;;;5.20;99.90;;;;;;4956095;28;20231;-79
2021/12/09 18:51:05;;;;;;;5.17;1.43;;;5.20;99.90;;;;;;4956647;28;20208;-79
2021/12/09 18:53:32;;;;;;;5.40;1.43;;;5.10;99.90;;;;;;4956516;28;20706;-79
2021/12/09 18:55:59;;;;;;;4.93;1.20;;;5.10;99.90;;;;;;4955303;28;20208;-79
2021/12/09 18:58:25;;;;;;;8.30;1.83;;;5.10;99.90;;;;;;4937692;29;20215;-79
2021/12/09 19:00:55;;;;;;;7.73;1.70;;;5.10;99.90;;;;;;4937589;29;20209;-78
2021/12/09 19:03:24;;;;;;;4.47;1.50;;;5.00;99.90;;;;;;4937547;29;20237;-79
2021/12/09 19:05:52;;;;;;;6.00;1.50;;;5.00;99.90;;;;;;4937406;29;20213;-76
2021/12/09 19:08:20;;;;;;;6.97;1.50;;;5.00;99.90;;;;;;4956558;28;20243;-76
2021/12/09 19:10:49;;;;;;;5.10;1.20;;;5.00;99.90;;;;;;4956513;28;20435;-76
2021/12/09 19:13:18;;;;;;;2.17;1.00;;;5.00;99.90;;;;;;4956097;28;20240;-76
2021/12/09 19:15:47;;;;;;;4.40;1.40;;;5.00;99.90;;;;;;4949342;28;20208;-76
2021/12/09 19:18:25;;;;;;;2.77;1.50;;;5.00;99.90;;;;;;4937053;28;20205;-75
2021/12/09 19:20:55;;;;;;;4.27;1.40;;;4.90;99.90;;;;;;4937314;29;20219;-79
2021/12/09 19:23:22;;;;;;;3.57;1.57;;;4.90;99.90;;;;;;4937255;29;20228;-79
2021/12/09 19:25:52;;;;;;;4.97;1.30;;;4.90;99.90;;;;;;4937301;29;20563;-77
2021/12/09 19:28:19;;;;;;;3.67;1.37;;;4.90;99.90;;;;;;4937133;29;20240;-77
2021/12/09 19:30:46;;;;;;;4.60;1.53;;;4.90;99.90;;;;;;4936752;29;20213;-76
2021/12/09 19:33:13;;;;;;;3.27;1.30;;;4.90;99.90;;;;;;4936977;29;20240;-77
2021/12/09 19:35:40;;;;;;;4.40;1.47;;;4.80;99.90;;;;;;4936785;29;20251;-79
2021/12/09 19:38:10;;;;;;;15.10;1.97;;;4.80;99.90;;;;;;4936682;29;20209;-77
2021/12/09 19:40:40;;;;;;;5.20;1.27;;;4.80;99.90;;;;;;4936722;29;20209;-77
2021/12/09 19:43:07;;;;;;;6.10;1.40;;;4.80;99.90;;;;;;4936781;29;20229;-77
2021/12/09 19:45:34;;;;;;;5.37;1.67;;;4.80;99.90;;;;;;4936648;29;20228;-77
2021/12/09 19:48:01;;;;;;;4.93;1.97;;;4.80;99.90;;;;;;4936431;29;20221;-78
